sensor_id;sensor_type;location;lat;lon;timestamp;P1;durP1;ratioP1;P2;durP2;ratioP2
44508;SDS011;30214;52.246;14.408;2023-09-07T00:00:34;9.63;;;5.13;;
44508;SDS011;30214;52.246;14.408;2023-09-07T00:03:03;9.75;;;5.22;;
44508;SDS011;30214;52.246;14.408;2023-09-07T00:05:30;6.53;;;5.18;;
44508;SDS011;30214;52.246;14.408;2023-09-07T00:07:57;10.30;;;6.22;;
44508;SDS011;30214;52.246;14.408;2023-09-07T00:10:25;7.78;;;5.85;;
44508;SDS011;30214;52.246;14.408;2023-09-07T00:12:52;9.30;;;5.97;;
44508;SDS011;30214;52.246;14.408;2023-09-07T00:15:19;7.68;;;5.32;;
44508;SDS011;30214;52.246;14.408;2023-09-07T00:17:47;10.25;;;5.45;;
44508;SDS011;30214;52.246;14.408;2023-09-07T00:20:16;8.30;;;5.35;;
44508;SDS011;30214;52.246;14.408;2023-09-07T00:22:44;11.07;;;5.65;;
44508;SDS011;30214;52.246;14.408;2023-09-07T00:25:14;8.27;;;5.55;;
44508;SDS011;30214;52.246;14.408;2023-09-07T00:27:45;12.50;;;5.35;;
44508;SDS011;30214;52.246;14.408;2023-09-07T00:30:12;9.65;;;5.68;;
44508;SDS011;30214;52.246;14.408;2023-09-07T00:32:39;8.02;;;5.50;;
44508;SDS011;30214;52.246;14.408;2023-09-07T00:35:09;12.20;;;6.03;;
44508;SDS011;30214;52.246;14.408;2023-09-07T00:37:38;6.70;;;5.53;;
44508;SDS011;30214;52.246;14.408;2023-09-07T00:40:05;8.15;;;5.80;;
44508;SDS011;30214;52.246;14.408;2023-09-07T00:42:35;7.00;;;5.05;;
44508;SDS011;30214;52.246;14.408;2023-09-07T00:45:02;9.50;;;5.78;;
44508;SDS011;30214;52.246;14.408;2023-09-07T00:47:31;9.32;;;5.45;;
44508;SDS011;30214;52.246;14.408;2023-09-07T00:50:01;9.52;;;5.50;;
44508;SDS011;30214;52.246;14.408;2023-09-07T00:52:31;7.15;;;5.60;;
44508;SDS011;30214;52.246;14.408;2023-09-07T00:55:02;8.40;;;5.40;;
44508;SDS011;30214;52.246;14.408;2023-09-07T00:57:29;9.90;;;5.00;;
44508;SDS011;30214;52.246;14.408;2023-09-07T00:59:57;11.25;;;5.70;;
44508;SDS011;30214;52.246;14.408;2023-09-07T01:02:24;10.00;;;5.32;;
44508;SDS011;30214;52.246;14.408;2023-09-07T01:04:51;6.80;;;5.93;;
44508;SDS011;30214;52.246;14.408;2023-09-07T01:07:20;5.25;;;4.05;;
44508;SDS011;30214;52.246;14.408;2023-09-07T01:09:51;7.57;;;5.38;;
44508;SDS011;30214;52.246;14.408;2023-09-07T01:12:23;6.43;;;5.10;;
44508;SDS011;30214;52.246;14.408;2023-09-07T01:14:50;7.80;;;5.55;;
44508;SDS011;30214;52.246;14.408;2023-09-07T01:17:18;8.07;;;4.85;;
44508;SDS011;30214;52.246;14.408;2023-09-07T01:19:47;7.57;;;5.30;;
44508;SDS011;30214;52.246;14.408;2023-09-07T01:22:17;7.10;;;5.40;;
44508;SDS011;30214;52.246;14.408;2023-09-07T01:24:48;10.93;;;5.88;;
44508;SDS011;30214;52.246;14.408;2023-09-07T01:27:20;7.65;;;5.72;;
44508;SDS011;30214;52.246;14.408;2023-09-07T01:29:47;7.10;;;5.63;;
44508;SDS011;30214;52.246;14.408;2023-09-07T01:32:16;8.00;;;5.82;;
44508;SDS011;30214;52.246;14.408;2023-09-07T01:34:43;8.75;;;5.72;;
44508;SDS011;30214;52.246;14.408;2023-09-07T01:37:10;7.85;;;5.88;;
44508;SDS011;30214;52.246;14.408;2023-09-07T01:39:38;8.20;;;6.15;;
44508;SDS011;30214;52.246;14.408;2023-09-07T01:42:06;10.57;;;5.70;;
44508;SDS011;30214;52.246;14.408;2023-09-07T01:44:33;10.52;;;5.70;;
44508;SDS011;30214;52.246;14.408;2023-09-07T01:47:01;8.55;;;6.22;;
44508;SDS011;30214;52.246;14.408;2023-09-07T01:49:28;8.27;;;5.50;;
44508;SDS011;30214;52.246;14.408;2023-09-07T01:51:55;12.57;;;6.35;;
44508;SDS011;30214;52.246;14.408;2023-09-07T01:54:22;7.63;;;5.70;;
44508;SDS011;30214;52.246;14.408;2023-09-07T01:56:54;6.70;;;5.55;;
44508;SDS011;30214;52.246;14.408;2023-09-07T01:59:22;10.23;;;6.88;;
44508;SDS011;30214;52.246;14.408;2023-09-07T02:01:49;10.18;;;6.20;;
44508;SDS011;30214;52.246;14.408;2023-09-07T02:04:18;9.88;;;6.40;;
44508;SDS011;30214;52.246;14.408;2023-09-07T02:06:45;10.73;;;6.00;;
44508;SDS011;30214;52.246;14.408;2023-09-07T02:09:12;8.45;;;6.10;;
44508;SDS011;30214;52.246;14.408;2023-09-07T02:11:39;7.75;;;6.05;;
44508;SDS011;30214;52.246;14.408;2023-09-07T02:14:07;8.02;;;6.40;;
44508;SDS011;30214;52.246;14.408;2023-09-07T02:16:36;11.23;;;6.32;;
44508;SDS011;30214;52.246;14.408;2023-09-07T02:19:03;10.68;;;6.40;;
44508;SDS011;30214;52.246;14.408;2023-09-07T02:21:31;10.00;;;6.53;;
44508;SDS011;30214;52.246;14.408;2023-09-07T02:23:58;13.40;;;6.60;;
44508;SDS011;30214;52.246;14.408;2023-09-07T02:26:25;11.73;;;7.20;;
44508;SDS011;30214;52.246;14.408;2023-09-07T02:28:52;11.70;;;6.43;;
44508;SDS011;30214;52.246;14.408;2023-09-07T02:31:24;11.95;;;7.20;;
44508;SDS011;30214;52.246;14.408;2023-09-07T02:33:52;8.77;;;6.53;;
44508;SDS011;30214;52.246;14.408;2023-09-07T02:36:21;10.73;;;6.57;;
44508;SDS011;30214;52.246;14.408;2023-09-07T02:38:48;14.95;;;7.28;;
44508;SDS011;30214;52.246;14.408;2023-09-07T02:41:15;10.23;;;7.00;;
44508;SDS011;30214;52.246;14.408;2023-09-07T02:43:42;7.72;;;6.55;;
44508;SDS011;30214;52.246;14.408;2023-09-07T02:46:09;10.13;;;6.70;;
44508;SDS011;30214;52.246;14.408;2023-09-07T02:48:43;9.93;;;6.50;;
44508;SDS011;30214;52.246;14.408;2023-09-07T02:51:10;11.13;;;7.00;;
44508;SDS011;30214;52.246;14.408;2023-09-07T02:53:39;12.50;;;6.97;;
44508;SDS011;30214;52.246;14.408;2023-09-07T02:56:06;10.48;;;6.65;;
44508;SDS011;30214;52.246;14.408;2023-09-07T02:58:37;9.15;;;6.90;;
44508;SDS011;30214;52.246;14.408;2023-09-07T03:01:05;10.20;;;6.95;;
44508;SDS011;30214;52.246;14.408;2023-09-07T03:03:34;9.18;;;6.70;;
44508;SDS011;30214;52.246;14.408;2023-09-07T03:06:08;9.52;;;6.90;;
44508;SDS011;30214;52.246;14.408;2023-09-07T03:08:36;10.57;;;6.65;;
44508;SDS011;30214;52.246;14.408;2023-09-07T03:11:03;10.65;;;6.97;;
44508;SDS011;30214;52.246;14.408;2023-09-07T03:13:30;9.70;;;6.50;;
44508;SDS011;30214;52.246;14.408;2023-09-07T03:15:57;9.80;;;6.63;;
44508;SDS011;30214;52.246;14.408;2023-09-07T03:18:25;11.68;;;7.18;;
44508;SDS011;30214;52.246;14.408;2023-09-07T03:20:54;8.98;;;7.05;;
44508;SDS011;30214;52.246;14.408;2023-09-07T03:23:25;7.78;;;6.32;;
44508;SDS011;30214;52.246;14.408;2023-09-07T03:25:56;11.63;;;6.10;;
44508;SDS011;30214;52.246;14.408;2023-09-07T03:28:29;10.57;;;6.60;;
44508;SDS011;30214;52.246;14.408;2023-09-07T03:30:56;9.95;;;6.78;;
44508;SDS011;30214;52.246;14.408;2023-09-07T03:33:26;10.20;;;7.32;;
44508;SDS011;30214;52.246;14.408;2023-09-07T03:35:56;11.18;;;6.55;;
44508;SDS011;30214;52.246;14.408;2023-09-07T03:38:25;11.02;;;6.43;;
44508;SDS011;30214;52.246;14.408;2023-09-07T03:40:53;11.30;;;7.05;;
44508;SDS011;30214;52.246;14.408;2023-09-07T03:43:20;9.55;;;7.00;;
44508;SDS011;30214;52.246;14.408;2023-09-07T03:45:47;11.23;;;7.38;;
44508;SDS011;30214;52.246;14.408;2023-09-07T03:48:14;9.05;;;7.03;;
44508;SDS011;30214;52.246;14.408;2023-09-07T03:50:42;7.93;;;6.97;;
44508;SDS011;30214;52.246;14.408;2023-09-07T03:53:09;9.27;;;6.90;;
44508;SDS011;30214;52.246;14.408;2023-09-07T03:55:45;8.70;;;7.07;;
44508;SDS011;30214;52.246;14.408;2023-09-07T03:58:17;10.10;;;6.97;;
44508;SDS011;30214;52.246;14.408;2023-09-07T04:00:52;10.38;;;6.88;;
44508;SDS011;30214;52.246;14.408;2023-09-07T04:03:23;9.52;;;7.88;;
44508;SDS011;30214;52.246;14.408;2023-09-07T04:06:11;10.25;;;7.13;;
44508;SDS011;30214;52.246;14.408;2023-09-07T04:08:42;13.10;;;8.45;;
44508;SDS011;30214;52.246;14.408;2023-09-07T04:11:14;11.80;;;7.72;;
44508;SDS011;30214;52.246;14.408;2023-09-07T04:16:38;14.95;;;7.68;;
44508;SDS011;30214;52.246;14.408;2023-09-07T04:26:28;13.50;;;7.75;;
44508;SDS011;30214;52.246;14.408;2023-09-07T04:28:55;13.50;;;8.65;;
44508;SDS011;30214;52.246;14.408;2023-09-07T04:31:23;11.50;;;8.18;;
44508;SDS011;30214;52.246;14.408;2023-09-07T04:33:58;13.32;;;7.32;;
44508;SDS011;30214;52.246;14.408;2023-09-07T04:36:48;9.45;;;7.68;;
44508;SDS011;30214;52.246;14.408;2023-09-07T04:39:16;11.13;;;7.55;;
44508;SDS011;30214;52.246;14.408;2023-09-07T04:41:49;14.85;;;8.63;;
44508;SDS011;30214;52.246;14.408;2023-09-07T04:44:22;9.05;;;7.32;;
44508;SDS011;30214;52.246;14.408;2023-09-07T04:46:53;12.02;;;7.80;;
44508;SDS011;30214;52.246;14.408;2023-09-07T04:49:23;10.52;;;7.82;;
44508;SDS011;30214;52.246;14.408;2023-09-07T04:51:52;11.90;;;7.60;;
44508;SDS011;30214;52.246;14.408;2023-09-07T04:54:25;13.75;;;8.35;;
44508;SDS011;30214;52.246;14.408;2023-09-07T04:57:09;9.50;;;6.95;;
44508;SDS011;30214;52.246;14.408;2023-09-07T04:59:37;8.88;;;7.45;;
44508;SDS011;30214;52.246;14.408;2023-09-07T05:02:10;12.52;;;7.90;;
44508;SDS011;30214;52.246;14.408;2023-09-07T05:04:37;11.77;;;7.10;;
44508;SDS011;30214;52.246;14.408;2023-09-07T05:07:09;14.38;;;6.82;;
44508;SDS011;30214;52.246;14.408;2023-09-07T05:09:45;11.93;;;7.05;;
44508;SDS011;30214;52.246;14.408;2023-09-07T05:12:33;11.88;;;7.43;;
44508;SDS011;30214;52.246;14.408;2023-09-07T05:15:03;9.85;;;7.13;;
44508;SDS011;30214;52.246;14.408;2023-09-07T05:17:32;10.52;;;6.50;;
44508;SDS011;30214;52.246;14.408;2023-09-07T05:19:59;10.57;;;6.80;;
44508;SDS011;30214;52.246;14.408;2023-09-07T05:22:26;8.57;;;6.68;;
44508;SDS011;30214;52.246;14.408;2023-09-07T05:24:53;9.55;;;6.97;;
44508;SDS011;30214;52.246;14.408;2023-09-07T05:27:20;11.45;;;7.43;;
44508;SDS011;30214;52.246;14.408;2023-09-07T05:29:49;10.75;;;6.47;;
44508;SDS011;30214;52.246;14.408;2023-09-07T05:32:20;9.75;;;6.82;;
44508;SDS011;30214;52.246;14.408;2023-09-07T05:34:51;9.93;;;6.43;;
44508;SDS011;30214;52.246;14.408;2023-09-07T05:37:19;13.48;;;7.05;;
44508;SDS011;30214;52.246;14.408;2023-09-07T05:39:47;8.60;;;6.35;;
44508;SDS011;30214;52.246;14.408;2023-09-07T05:42:15;13.38;;;6.70;;
44508;SDS011;30214;52.246;14.408;2023-09-07T05:44:42;10.18;;;6.60;;
44508;SDS011;30214;52.246;14.408;2023-09-07T05:47:11;9.88;;;6.63;;
44508;SDS011;30214;52.246;14.408;2023-09-07T05:49:38;10.98;;;6.00;;
44508;SDS011;30214;52.246;14.408;2023-09-07T05:52:09;10.88;;;6.57;;
44508;SDS011;30214;52.246;14.408;2023-09-07T05:54:36;10.38;;;6.75;;
44508;SDS011;30214;52.246;14.408;2023-09-07T05:57:07;9.07;;;6.25;;
44508;SDS011;30214;52.246;14.408;2023-09-07T05:59:40;9.02;;;6.45;;
44508;SDS011;30214;52.246;14.408;2023-09-07T06:02:12;8.95;;;6.22;;
44508;SDS011;30214;52.246;14.408;2023-09-07T06:04:39;9.55;;;6.20;;
44508;SDS011;30214;52.246;14.408;2023-09-07T06:07:07;9.20;;;6.72;;
44508;SDS011;30214;52.246;14.408;2023-09-07T06:09:38;10.50;;;6.47;;
44508;SDS011;30214;52.246;14.408;2023-09-07T06:12:10;10.63;;;6.40;;
44508;SDS011;30214;52.246;14.408;2023-09-07T06:14:42;12.23;;;6.82;;
44508;SDS011;30214;52.246;14.408;2023-09-07T06:17:13;8.95;;;6.65;;
44508;SDS011;30214;52.246;14.408;2023-09-07T06:19:41;16.48;;;7.28;;
44508;SDS011;30214;52.246;14.408;2023-09-07T06:22:08;13.60;;;6.43;;
44508;SDS011;30214;52.246;14.408;2023-09-07T06:24:39;9.27;;;6.68;;
44508;SDS011;30214;52.246;14.408;2023-09-07T06:27:19;11.65;;;7.28;;
44508;SDS011;30214;52.246;14.408;2023-09-07T06:29:59;14.05;;;6.93;;
44508;SDS011;30214;52.246;14.408;2023-09-07T06:32:44;11.18;;;7.57;;
44508;SDS011;30214;52.246;14.408;2023-09-07T06:35:17;12.02;;;7.57;;
44508;SDS011;30214;52.246;14.408;2023-09-07T06:37:52;12.25;;;9.10;;
44508;SDS011;30214;52.246;14.408;2023-09-07T06:48:06;9.90;;;7.43;;
44508;SDS011;30214;52.246;14.408;2023-09-07T06:50:39;13.85;;;7.80;;
44508;SDS011;30214;52.246;14.408;2023-09-07T06:53:14;10.73;;;7.75;;
44508;SDS011;30214;52.246;14.408;2023-09-07T06:55:43;10.82;;;7.40;;
44508;SDS011;30214;52.246;14.408;2023-09-07T06:58:16;11.05;;;8.13;;
44508;SDS011;30214;52.246;14.408;2023-09-07T07:08:28;10.05;;;7.43;;
44508;SDS011;30214;52.246;14.408;2023-09-07T07:18:48;9.70;;;7.07;;
44508;SDS011;30214;52.246;14.408;2023-09-07T07:21:23;12.45;;;7.05;;
44508;SDS011;30214;52.246;14.408;2023-09-07T07:24:00;9.63;;;6.95;;
44508;SDS011;30214;52.246;14.408;2023-09-07T07:26:30;12.57;;;7.20;;
44508;SDS011;30214;52.246;14.408;2023-09-07T07:29:12;10.75;;;6.40;;
44508;SDS011;30214;52.246;14.408;2023-09-07T07:39:28;10.05;;;6.47;;
44508;SDS011;30214;52.246;14.408;2023-09-07T07:56:53;11.32;;;5.50;;
44508;SDS011;30214;52.246;14.408;2023-09-07T08:03:27;13.32;;;6.80;;
44508;SDS011;30214;52.246;14.408;2023-09-07T08:13:21;10.57;;;5.47;;
44508;SDS011;30214;52.246;14.408;2023-09-07T08:18:57;10.70;;;5.65;;
44508;SDS011;30214;52.246;14.408;2023-09-07T08:41:00;12.27;;;5.32;;
44508;SDS011;30214;52.246;14.408;2023-09-07T08:43:33;11.57;;;5.20;;
44508;SDS011;30214;52.246;14.408;2023-09-07T08:57:51;12.75;;;5.50;;
44508;SDS011;30214;52.246;14.408;2023-09-07T09:00:28;9.57;;;5.03;;
44508;SDS011;30214;52.246;14.408;2023-09-07T09:07:14;7.43;;;5.45;;
44508;SDS011;30214;52.246;14.408;2023-09-07T09:10:17;10.75;;;5.05;;
44508;SDS011;30214;52.246;14.408;2023-09-07T09:12:44;9.27;;;5.30;;
44508;SDS011;30214;52.246;14.408;2023-09-07T09:15:16;10.60;;;5.00;;
44508;SDS011;30214;52.246;14.408;2023-09-07T09:17:46;12.43;;;4.65;;
44508;SDS011;30214;52.246;14.408;2023-09-07T09:20:26;7.93;;;5.00;;
44508;SDS011;30214;52.246;14.408;2023-09-07T09:22:59;7.50;;;4.80;;
44508;SDS011;30214;52.246;14.408;2023-09-07T09:30:24;7.32;;;4.80;;
44508;SDS011;30214;52.246;14.408;2023-09-07T09:32:55;7.85;;;4.97;;
44508;SDS011;30214;52.246;14.408;2023-09-07T09:35:29;6.00;;;4.53;;
44508;SDS011;30214;52.246;14.408;2023-09-07T09:40:59;10.00;;;5.15;;
44508;SDS011;30214;52.246;14.408;2023-09-07T09:43:34;11.75;;;5.63;;
44508;SDS011;30214;52.246;14.408;2023-09-07T09:46:11;8.00;;;4.50;;
44508;SDS011;30214;52.246;14.408;2023-09-07T09:48:53;7.47;;;4.65;;
44508;SDS011;30214;52.246;14.408;2023-09-07T09:52:18;7.97;;;4.30;;
44508;SDS011;30214;52.246;14.408;2023-09-07T09:54:55;8.55;;;4.22;;
44508;SDS011;30214;52.246;14.408;2023-09-07T09:57:28;8.30;;;4.40;;
44508;SDS011;30214;52.246;14.408;2023-09-07T10:00:01;7.05;;;4.45;;
44508;SDS011;30214;52.246;14.408;2023-09-07T10:02:54;8.75;;;4.40;;
44508;SDS011;30214;52.246;14.408;2023-09-07T10:05:29;5.20;;;3.83;;
44508;SDS011;30214;52.246;14.408;2023-09-07T10:08:08;5.40;;;3.80;;
44508;SDS011;30214;52.246;14.408;2023-09-07T10:18:32;10.23;;;4.07;;
44508;SDS011;30214;52.246;14.408;2023-09-07T10:21:00;7.53;;;4.05;;
44508;SDS011;30214;52.246;14.408;2023-09-07T10:23:37;6.53;;;4.20;;
44508;SDS011;30214;52.246;14.408;2023-09-07T10:26:15;6.97;;;3.70;;
44508;SDS011;30214;52.246;14.408;2023-09-07T10:33:22;8.35;;;3.83;;
44508;SDS011;30214;52.246;14.408;2023-09-07T10:35:51;11.75;;;3.90;;
44508;SDS011;30214;52.246;14.408;2023-09-07T10:38:25;8.15;;;3.67;;
44508;SDS011;30214;52.246;14.408;2023-09-07T10:41:00;7.68;;;4.15;;
44508;SDS011;30214;52.246;14.408;2023-09-07T10:43:30;7.03;;;4.15;;
44508;SDS011;30214;52.246;14.408;2023-09-07T10:46:06;9.32;;;4.25;;
44508;SDS011;30214;52.246;14.408;2023-09-07T10:48:47;7.30;;;4.53;;
44508;SDS011;30214;52.246;14.408;2023-09-07T10:51:47;7.50;;;4.50;;
44508;SDS011;30214;52.246;14.408;2023-09-07T10:54:35;7.20;;;3.65;;
44508;SDS011;30214;52.246;14.408;2023-09-07T10:57:13;10.48;;;4.50;;
44508;SDS011;30214;52.246;14.408;2023-09-07T10:59:44;7.93;;;4.53;;
44508;SDS011;30214;52.246;14.408;2023-09-07T11:02:24;7.85;;;4.45;;
44508;SDS011;30214;52.246;14.408;2023-09-07T11:04:56;8.98;;;4.20;;
44508;SDS011;30214;52.246;14.408;2023-09-07T11:07:28;9.25;;;4.30;;
44508;SDS011;30214;52.246;14.408;2023-09-07T11:10:10;11.85;;;4.20;;
44508;SDS011;30214;52.246;14.408;2023-09-07T11:13:03;7.95;;;4.40;;
44508;SDS011;30214;52.246;14.408;2023-09-07T11:19:42;12.90;;;4.03;;
44508;SDS011;30214;52.246;14.408;2023-09-07T11:22:20;6.18;;;4.22;;
44508;SDS011;30214;52.246;14.408;2023-09-07T11:24:55;6.78;;;4.18;;
44508;SDS011;30214;52.246;14.408;2023-09-07T11:27:57;8.30;;;4.30;;
44508;SDS011;30214;52.246;14.408;2023-09-07T11:30:51;10.00;;;4.40;;
44508;SDS011;30214;52.246;14.408;2023-09-07T11:33:35;8.02;;;4.40;;
44508;SDS011;30214;52.246;14.408;2023-09-07T11:43:25;7.85;;;4.40;;
44508;SDS011;30214;52.246;14.408;2023-09-07T11:46:20;7.05;;;4.30;;
44508;SDS011;30214;52.246;14.408;2023-09-07T11:48:56;8.70;;;4.43;;
44508;SDS011;30214;52.246;14.408;2023-09-07T11:51:35;7.25;;;4.70;;
44508;SDS011;30214;52.246;14.408;2023-09-07T11:54:03;9.13;;;4.88;;
44508;SDS011;30214;52.246;14.408;2023-09-07T12:00:09;7.10;;;4.05;;
44508;SDS011;30214;52.246;14.408;2023-09-07T12:02:44;9.23;;;4.65;;
44508;SDS011;30214;52.246;14.408;2023-09-07T12:05:17;9.20;;;4.90;;
44508;SDS011;30214;52.246;14.408;2023-09-07T12:15:11;7.55;;;4.40;;
44508;SDS011;30214;52.246;14.408;2023-09-07T12:17:58;8.05;;;4.60;;
44508;SDS011;30214;52.246;14.408;2023-09-07T12:20:32;6.45;;;4.32;;
44508;SDS011;30214;52.246;14.408;2023-09-07T12:23:12;5.97;;;4.33;;
44508;SDS011;30214;52.246;14.408;2023-09-07T12:25:42;12.32;;;4.43;;
44508;SDS011;30214;52.246;14.408;2023-09-07T12:28:22;7.10;;;4.28;;
44508;SDS011;30214;52.246;14.408;2023-09-07T12:33:43;13.77;;;5.45;;
44508;SDS011;30214;52.246;14.408;2023-09-07T12:36:13;7.93;;;3.80;;
44508;SDS011;30214;52.246;14.408;2023-09-07T12:38:53;7.53;;;4.40;;
44508;SDS011;30214;52.246;14.408;2023-09-07T12:42:26;6.57;;;3.90;;
44508;SDS011;30214;52.246;14.408;2023-09-07T12:52:44;8.77;;;3.85;;
44508;SDS011;30214;52.246;14.408;2023-09-07T12:55:15;8.75;;;3.72;;
44508;SDS011;30214;52.246;14.408;2023-09-07T12:57:56;7.60;;;3.85;;
44508;SDS011;30214;52.246;14.408;2023-09-07T13:00:30;9.07;;;3.58;;
44508;SDS011;30214;52.246;14.408;2023-09-07T13:03:15;6.97;;;4.18;;
44508;SDS011;30214;52.246;14.408;2023-09-07T13:05:47;6.47;;;3.80;;
44508;SDS011;30214;52.246;14.408;2023-09-07T13:08:25;5.93;;;3.83;;
44508;SDS011;30214;52.246;14.408;2023-09-07T13:11:00;6.50;;;3.80;;
44508;SDS011;30214;52.246;14.408;2023-09-07T13:13:58;9.65;;;4.07;;
44508;SDS011;30214;52.246;14.408;2023-09-07T13:16:29;11.73;;;4.18;;
44508;SDS011;30214;52.246;14.408;2023-09-07T13:19:05;8.57;;;4.20;;
44508;SDS011;30214;52.246;14.408;2023-09-07T13:22:01;8.55;;;4.35;;
44508;SDS011;30214;52.246;14.408;2023-09-07T13:24:43;8.73;;;4.00;;
44508;SDS011;30214;52.246;14.408;2023-09-07T13:27:15;7.90;;;3.97;;
44508;SDS011;30214;52.246;14.408;2023-09-07T13:32:28;8.70;;;3.92;;
44508;SDS011;30214;52.246;14.408;2023-09-07T13:42:41;7.38;;;4.28;;
44508;SDS011;30214;52.246;14.408;2023-09-07T13:45:13;7.35;;;4.03;;
44508;SDS011;30214;52.246;14.408;2023-09-07T13:47:51;6.50;;;4.05;;
44508;SDS011;30214;52.246;14.408;2023-09-07T13:50:32;7.68;;;4.25;;
44508;SDS011;30214;52.246;14.408;2023-09-07T13:52:59;6.68;;;3.90;;
44508;SDS011;30214;52.246;14.408;2023-09-07T13:55:29;6.80;;;4.18;;
44508;SDS011;30214;52.246;14.408;2023-09-07T13:58:06;6.30;;;3.85;;
44508;SDS011;30214;52.246;14.408;2023-09-07T14:00:42;6.40;;;4.22;;
44508;SDS011;30214;52.246;14.408;2023-09-07T14:03:12;7.07;;;3.95;;
44508;SDS011;30214;52.246;14.408;2023-09-07T14:05:43;6.38;;;3.80;;
44508;SDS011;30214;52.246;14.408;2023-09-07T14:08:22;7.53;;;3.85;;
44508;SDS011;30214;52.246;14.408;2023-09-07T14:11:01;9.52;;;4.18;;
44508;SDS011;30214;52.246;14.408;2023-09-07T14:13:40;6.30;;;4.00;;
44508;SDS011;30214;52.246;14.408;2023-09-07T14:16:12;8.07;;;4.32;;
44508;SDS011;30214;52.246;14.408;2023-09-07T14:18:45;5.97;;;4.30;;
44508;SDS011;30214;52.246;14.408;2023-09-07T14:21:14;8.63;;;3.90;;
44508;SDS011;30214;52.246;14.408;2023-09-07T14:23:43;5.47;;;4.13;;
44508;SDS011;30214;52.246;14.408;2023-09-07T14:26:15;6.20;;;3.80;;
44508;SDS011;30214;52.246;14.408;2023-09-07T14:28:43;6.93;;;3.90;;
44508;SDS011;30214;52.246;14.408;2023-09-07T14:31:10;9.65;;;4.03;;
44508;SDS011;30214;52.246;14.408;2023-09-07T14:33:37;6.65;;;3.90;;
44508;SDS011;30214;52.246;14.408;2023-09-07T14:36:06;7.15;;;3.92;;
44508;SDS011;30214;52.246;14.408;2023-09-07T14:38:34;7.57;;;4.20;;
44508;SDS011;30214;52.246;14.408;2023-09-07T14:41:21;10.38;;;4.53;;
44508;SDS011;30214;52.246;14.408;2023-09-07T14:43:50;9.70;;;4.40;;
44508;SDS011;30214;52.246;14.408;2023-09-07T14:46:20;7.15;;;4.20;;
44508;SDS011;30214;52.246;14.408;2023-09-07T14:48:53;6.68;;;4.28;;
44508;SDS011;30214;52.246;14.408;2023-09-07T14:51:24;8.48;;;3.90;;
44508;SDS011;30214;52.246;14.408;2023-09-07T14:53:53;11.75;;;4.35;;
44508;SDS011;30214;52.246;14.408;2023-09-07T14:56:21;8.20;;;4.38;;
44508;SDS011;30214;52.246;14.408;2023-09-07T14:58:54;8.98;;;4.47;;
44508;SDS011;30214;52.246;14.408;2023-09-07T15:01:22;10.57;;;4.30;;
44508;SDS011;30214;52.246;14.408;2023-09-07T15:03:49;8.77;;;4.50;;
44508;SDS011;30214;52.246;14.408;2023-09-07T15:06:24;7.65;;;4.13;;
44508;SDS011;30214;52.246;14.408;2023-09-07T15:08:57;7.50;;;3.97;;
44508;SDS011;30214;52.246;14.408;2023-09-07T15:11:25;7.18;;;4.05;;
44508;SDS011;30214;52.246;14.408;2023-09-07T15:13:54;6.97;;;3.97;;
44508;SDS011;30214;52.246;14.408;2023-09-07T15:16:22;7.43;;;3.80;;
44508;SDS011;30214;52.246;14.408;2023-09-07T15:18:51;6.60;;;4.28;;
44508;SDS011;30214;52.246;14.408;2023-09-07T15:21:19;7.80;;;4.20;;
44508;SDS011;30214;52.246;14.408;2023-09-07T15:23:48;8.52;;;3.72;;
44508;SDS011;30214;52.246;14.408;2023-09-07T15:26:18;7.38;;;4.13;;
44508;SDS011;30214;52.246;14.408;2023-09-07T15:28:45;7.20;;;4.30;;
44508;SDS011;30214;52.246;14.408;2023-09-07T15:31:16;6.85;;;3.85;;
44508;SDS011;30214;52.246;14.408;2023-09-07T15:33:44;6.28;;;4.28;;
44508;SDS011;30214;52.246;14.408;2023-09-07T15:36:15;6.25;;;3.92;;
44508;SDS011;30214;52.246;14.408;2023-09-07T15:38:43;8.00;;;3.90;;
44508;SDS011;30214;52.246;14.408;2023-09-07T15:41:13;6.85;;;4.05;;
44508;SDS011;30214;52.246;14.408;2023-09-07T15:43:40;9.15;;;4.30;;
44508;SDS011;30214;52.246;14.408;2023-09-07T15:46:08;6.97;;;4.13;;
44508;SDS011;30214;52.246;14.408;2023-09-07T15:48:40;6.63;;;4.00;;
44508;SDS011;30214;52.246;14.408;2023-09-07T15:51:08;7.22;;;4.15;;
44508;SDS011;30214;52.246;14.408;2023-09-07T15:53:36;11.55;;;4.10;;
44508;SDS011;30214;52.246;14.408;2023-09-07T15:56:06;5.70;;;3.97;;
44508;SDS011;30214;52.246;14.408;2023-09-07T15:58:37;6.95;;;3.97;;
44508;SDS011;30214;52.246;14.408;2023-09-07T16:01:04;7.82;;;4.05;;
44508;SDS011;30214;52.246;14.408;2023-09-07T16:03:32;6.80;;;4.13;;
44508;SDS011;30214;52.246;14.408;2023-09-07T16:06:01;7.75;;;4.13;;
44508;SDS011;30214;52.246;14.408;2023-09-07T16:08:28;7.93;;;4.20;;
44508;SDS011;30214;52.246;14.408;2023-09-07T16:10:56;8.75;;;4.10;;
44508;SDS011;30214;52.246;14.408;2023-09-07T16:13:25;7.88;;;4.22;;
44508;SDS011;30214;52.246;14.408;2023-09-07T16:15:52;6.63;;;4.07;;
44508;SDS011;30214;52.246;14.408;2023-09-07T16:18:20;7.70;;;3.72;;
44508;SDS011;30214;52.246;14.408;2023-09-07T16:20:47;6.88;;;4.25;;
44508;SDS011;30214;52.246;14.408;2023-09-07T16:23:17;7.70;;;3.80;;
44508;SDS011;30214;52.246;14.408;2023-09-07T16:25:46;5.45;;;3.90;;
44508;SDS011;30214;52.246;14.408;2023-09-07T16:28:13;8.93;;;4.35;;
44508;SDS011;30214;52.246;14.408;2023-09-07T17:01:54;6.90;;;3.85;;
44508;SDS011;30214;52.246;14.408;2023-09-07T17:04:30;6.53;;;3.90;;
44508;SDS011;30214;52.246;14.408;2023-09-07T17:07:37;10.90;;;4.88;;
44508;SDS011;30214;52.246;14.408;2023-09-07T17:25:32;6.03;;;4.20;;
44508;SDS011;30214;52.246;14.408;2023-09-07T18:26:14;9.88;;;4.35;;
44508;SDS011;30214;52.246;14.408;2023-09-07T18:41:02;6.70;;;4.40;;
44508;SDS011;30214;52.246;14.408;2023-09-07T18:43:30;9.05;;;4.88;;
44508;SDS011;30214;52.246;14.408;2023-09-07T18:50:04;8.73;;;4.50;;
44508;SDS011;30214;52.246;14.408;2023-09-07T19:00:38;8.90;;;4.63;;
44508;SDS011;30214;52.246;14.408;2023-09-07T19:03:20;8.98;;;4.65;;
44508;SDS011;30214;52.246;14.408;2023-09-07T19:24:05;8.48;;;5.00;;
44508;SDS011;30214;52.246;14.408;2023-09-07T19:26:48;6.57;;;4.85;;
44508;SDS011;30214;52.246;14.408;2023-09-07T19:29:16;5.85;;;4.68;;
44508;SDS011;30214;52.246;14.408;2023-09-07T19:31:44;6.63;;;4.45;;
44508;SDS011;30214;52.246;14.408;2023-09-07T19:34:11;10.77;;;4.72;;
44508;SDS011;30214;52.246;14.408;2023-09-07T19:36:39;9.55;;;5.15;;
44508;SDS011;30214;52.246;14.408;2023-09-07T19:39:12;14.23;;;4.38;;
44508;SDS011;30214;52.246;14.408;2023-09-07T19:41:49;11.48;;;5.00;;
44508;SDS011;30214;52.246;14.408;2023-09-07T19:44:18;9.05;;;4.43;;
44508;SDS011;30214;52.246;14.408;2023-09-07T19:46:51;8.18;;;5.03;;
44508;SDS011;30214;52.246;14.408;2023-09-07T19:49:27;8.68;;;5.18;;
44508;SDS011;30214;52.246;14.408;2023-09-07T19:52:01;9.50;;;4.97;;
44508;SDS011;30214;52.246;14.408;2023-09-07T19:54:37;6.40;;;5.13;;
44508;SDS011;30214;52.246;14.408;2023-09-07T19:57:05;8.30;;;5.07;;
44508;SDS011;30214;52.246;14.408;2023-09-07T19:59:46;9.52;;;5.28;;
44508;SDS011;30214;52.246;14.408;2023-09-07T20:02:16;7.85;;;4.75;;
44508;SDS011;30214;52.246;14.408;2023-09-07T20:04:58;9.03;;;5.23;;
44508;SDS011;30214;52.246;14.408;2023-09-07T20:07:33;10.07;;;4.88;;
44508;SDS011;30214;52.246;14.408;2023-09-07T20:10:08;8.48;;;5.38;;
44508;SDS011;30214;52.246;14.408;2023-09-07T20:12:47;8.30;;;5.18;;
44508;SDS011;30214;52.246;14.408;2023-09-07T20:15:16;12.85;;;5.47;;
44508;SDS011;30214;52.246;14.408;2023-09-07T20:17:46;9.13;;;5.05;;